createdAt,value
2018-09-13T00:02:26.491Z,96836.73
2018-09-13T00:04:55.374Z,96841.27
2018-09-13T00:07:24.232Z,96846.80
2018-09-13T00:09:53.140Z,96851.27
2018-09-13T00:12:22.053Z,96856.84
2018-09-13T00:14:51.096Z,96856.61
2018-09-13T00:17:19.992Z,96854.70
2018-09-13T00:19:48.915Z,96862.68
2018-09-13T00:22:17.775Z,96864.05
2018-09-13T00:24:46.646Z,96859.13
2018-09-13T00:27:15.520Z,96859.81
2018-09-13T00:29:44.647Z,96859.73
2018-09-13T00:32:13.513Z,96856.38
2018-09-13T00:34:42.408Z,96852.86
2018-09-13T00:37:11.350Z,96848.66
2018-09-13T00:39:40.215Z,96844.11
2018-09-13T00:42:09.084Z,96842.12
2018-09-13T00:44:38.139Z,96837.98
2018-09-13T00:47:11.221Z,96836.52
2018-09-13T00:49:40.206Z,96841.89
2018-09-13T00:52:09.143Z,96842.96
2018-09-13T00:54:38.131Z,96842.41
2018-09-13T00:57:07.128Z,96841.37
2018-09-13T00:59:36.015Z,96840.34
2018-09-13T01:02:05.061Z,96844.03
2018-09-13T01:04:34.047Z,96845.78
2018-09-13T01:07:03.117Z,96846.90
2018-09-13T01:09:31.963Z,96844.52
2018-09-13T01:12:00.819Z,96844.56
2018-09-13T01:14:29.789Z,96850.01
2018-09-13T01:17:00.145Z,96852.35
2018-09-13T01:19:29.017Z,96855.06
2018-09-13T01:21:57.878Z,96851.45
2018-09-13T01:24:26.751Z,96852.53
2018-09-13T01:26:55.704Z,96849.79
2018-09-13T01:29:24.580Z,96842.84
2018-09-13T01:31:53.470Z,96847.09
2018-09-13T01:34:22.400Z,96854.21
2018-09-13T01:36:51.293Z,96861.36
2018-09-13T01:39:20.254Z,96864.91
2018-09-13T01:41:49.156Z,96871.84
2018-09-13T01:44:18.053Z,96871.59
2018-09-13T01:46:46.947Z,96863.44
2018-09-13T01:49:15.984Z,96865.16
2018-09-13T01:51:44.890Z,96872.12
2018-09-13T01:54:14.142Z,96867.80
2018-09-13T01:56:43.035Z,96864.27
2018-09-13T01:59:11.966Z,96862.73
2018-09-13T02:01:40.973Z,96863.80
2018-09-13T02:04:09.860Z,96860.55
2018-09-13T02:06:38.956Z,96857.89
2018-09-13T02:09:09.959Z,96856.83
2018-09-13T02:11:38.811Z,96857.70
2018-09-13T02:14:07.764Z,96865.14
2018-09-13T02:16:36.684Z,96877.17
2018-09-13T02:19:05.728Z,96880.77
2018-09-13T02:21:34.643Z,96881.36
2018-09-13T02:24:03.499Z,96883.25
2018-09-13T02:26:32.356Z,96884.33
2018-09-13T02:29:01.311Z,96883.30
2018-09-13T02:31:30.328Z,96881.12
2018-09-13T02:33:59.220Z,96874.95
2018-09-13T02:36:28.117Z,96866.99
2018-09-13T02:38:56.992Z,96873.65
2018-09-13T02:41:25.839Z,96883.02
2018-09-13T02:43:54.794Z,96879.03
2018-09-13T02:46:23.801Z,96874.95
2018-09-13T02:48:52.731Z,96863.84
2018-09-13T02:51:21.603Z,96877.45
2018-09-13T02:53:50.552Z,96873.31
2018-09-13T02:56:19.431Z,96860.83
2018-09-13T02:58:48.392Z,96875.45
2018-09-13T03:01:17.272Z,96872.84
2018-09-13T03:03:46.191Z,96871.53
2018-09-13T03:06:15.138Z,96865.38
2018-09-13T03:08:44.008Z,96866.68
2018-09-13T03:11:12.886Z,96863.89
2018-09-13T03:13:41.793Z,96873.07
2018-09-13T03:16:10.835Z,96871.04
2018-09-13T03:18:39.763Z,96866.75
2018-09-13T03:21:08.668Z,96858.63
2018-09-13T03:23:37.605Z,96857.88
2018-09-13T03:26:06.500Z,96845.77
2018-09-13T03:28:35.439Z,96850.73
2018-09-13T03:31:04.378Z,96850.23
2018-09-13T03:33:33.401Z,96850.50
2018-09-13T03:36:02.356Z,96842.43
2018-09-13T03:38:31.222Z,96837.83
2018-09-13T03:41:00.107Z,96841.38
2018-09-13T03:43:28.985Z,96846.31
2018-09-13T03:45:57.851Z,96842.41
2018-09-13T03:48:27.006Z,96841.71
2018-09-13T03:50:55.896Z,96842.68
2018-09-13T03:53:24.880Z,96849.51
2018-09-13T03:55:53.896Z,96842.77
2018-09-13T03:58:22.789Z,96850.09
2018-09-13T04:00:51.643Z,96844.91
2018-09-13T04:03:20.647Z,96851.76
2018-09-13T04:05:49.833Z,96846.44
2018-09-13T04:08:18.913Z,96846.03
2018-09-13T04:10:47.837Z,96846.08
2018-09-13T04:13:16.881Z,96848.44
2018-09-13T04:15:45.952Z,96845.56
2018-09-13T04:18:14.877Z,96845.52
2018-09-13T04:20:43.802Z,96854.61
2018-09-13T04:23:12.665Z,96848.58
2018-09-13T04:25:41.568Z,96854.48
2018-09-13T04:28:10.554Z,96857.63
2018-09-13T04:30:39.455Z,96861.41
2018-09-13T04:33:08.505Z,96853.61
2018-09-13T04:35:37.447Z,96858.58
2018-09-13T04:38:06.369Z,96851.30
2018-09-13T04:40:35.242Z,96845.34
2018-09-13T04:43:04.443Z,96849.52
2018-09-13T04:45:33.417Z,96842.79
2018-09-13T04:48:02.572Z,96847.63
2018-09-13T04:50:31.615Z,96840.16
2018-09-13T04:53:00.859Z,96837.36
2018-09-13T04:55:30.046Z,96844.45
2018-09-13T04:57:59.305Z,96853.08
2018-09-13T05:00:28.317Z,96842.82
2018-09-13T05:02:57.240Z,96856.36
2018-09-13T05:05:26.520Z,96858.13
2018-09-13T05:07:55.529Z,96854.66
2018-09-13T05:10:24.728Z,96848.20
2018-09-13T05:12:53.855Z,96843.67
2018-09-13T05:15:24.576Z,96842.20
2018-09-13T05:17:54.843Z,96837.37
2018-09-13T05:20:23.794Z,96834.59
2018-09-13T05:22:52.730Z,96844.25
2018-09-13T05:25:21.712Z,96838.67
2018-09-13T05:27:50.638Z,96832.41
2018-09-13T05:30:19.684Z,96830.58
2018-09-13T05:32:48.720Z,96832.62
2018-09-13T05:35:17.586Z,96833.64
2018-09-13T05:37:46.489Z,96830.95
2018-09-13T05:40:15.386Z,96818.98
2018-09-13T05:42:44.232Z,96820.83
2018-09-13T05:45:13.183Z,96822.20
2018-09-13T05:47:42.028Z,96817.63
2018-09-13T05:50:11.385Z,96812.72
2018-09-13T05:52:40.242Z,96818.64
2018-09-13T05:55:09.152Z,96813.20
2018-09-13T05:57:38.175Z,96816.43
2018-09-13T06:00:07.383Z,96816.72
2018-09-13T06:02:36.260Z,96813.16
2018-09-13T06:05:05.191Z,96813.42
2018-09-13T06:07:34.183Z,96804.38
2018-09-13T06:10:03.134Z,96799.52
2018-09-13T06:12:32.269Z,96803.73
2018-09-13T06:15:01.122Z,96807.98
2018-09-13T06:17:30.020Z,96820.69
2018-09-13T06:19:59.145Z,96820.91
2018-09-13T06:22:28.072Z,96820.17
2018-09-13T06:24:56.923Z,96811.47
2018-09-13T06:27:25.808Z,96790.06
2018-09-13T06:29:54.743Z,96805.53
2018-09-13T06:32:23.688Z,96816.06
2018-09-13T06:34:52.560Z,96822.87
2018-09-13T06:37:21.422Z,96818.09
2018-09-13T06:39:50.280Z,96830.71
2018-09-13T06:42:19.305Z,96826.53
2018-09-13T06:44:48.139Z,96817.83
2018-09-13T06:47:17.008Z,96813.38
2018-09-13T06:49:45.907Z,96812.50
2018-09-13T06:52:14.864Z,96816.44
2018-09-13T06:54:43.745Z,96817.63
2018-09-13T06:57:12.628Z,96830.44
2018-09-13T06:59:41.571Z,96841.36
2018-09-13T07:02:10.440Z,96840.74
2018-09-13T07:04:39.319Z,96840.36
2018-09-13T07:07:08.252Z,96841.73
2018-09-13T07:09:37.228Z,96839.51
2018-09-13T07:12:06.127Z,96842.80
2018-09-13T07:14:35.125Z,96839.22
2018-09-13T07:17:04.016Z,96841.34
2018-09-13T07:19:32.916Z,96829.47
2018-09-13T07:22:01.852Z,96832.47
2018-09-13T07:24:31.088Z,96828.25
2018-09-13T07:26:59.939Z,96827.25
2018-09-13T07:29:28.797Z,96830.22
2018-09-13T07:31:57.859Z,96837.72
2018-09-13T07:34:26.703Z,96838.64
2018-09-13T07:36:55.659Z,96840.64
2018-09-13T07:39:24.540Z,96844.48
2018-09-13T07:41:53.416Z,96848.91
2018-09-13T07:44:22.291Z,96847.93
2018-09-13T07:46:51.200Z,96848.91
2018-09-13T07:49:20.196Z,96848.00
2018-09-13T07:51:49.167Z,96858.23
2018-09-13T07:54:18.032Z,96856.48
2018-09-13T07:56:46.906Z,96852.31
2018-09-13T07:59:15.813Z,96853.28
2018-09-13T08:01:44.736Z,96857.76
2018-09-13T08:04:13.611Z,96860.22
2018-09-13T08:06:42.531Z,96863.70
2018-09-13T08:09:12.944Z,96871.86
2018-09-13T08:11:41.917Z,96871.08
2018-09-13T08:14:10.776Z,96874.28
2018-09-13T08:16:39.653Z,96870.67
2018-09-13T08:19:08.565Z,96873.17
2018-09-13T08:21:37.525Z,96872.50
2018-09-13T08:24:07.315Z,96868.31
2018-09-13T08:26:36.292Z,96878.31
2018-09-13T08:29:05.207Z,96881.02
2018-09-13T08:31:34.199Z,96883.56
2018-09-13T08:34:03.308Z,96876.58
2018-09-13T08:36:32.179Z,96878.78
2018-09-13T08:39:01.087Z,96880.09
2018-09-13T08:41:29.944Z,96880.44
2018-09-13T08:43:58.815Z,96878.75
2018-09-13T08:46:27.683Z,96882.77
2018-09-13T08:48:56.576Z,96882.09
2018-09-13T08:51:25.431Z,96881.29
2018-09-13T08:53:54.319Z,96892.47
2018-09-13T08:56:23.204Z,96889.17
2018-09-13T08:58:52.113Z,96898.00
2018-09-13T09:01:20.997Z,96895.09
2018-09-13T09:03:49.901Z,96895.67
2018-09-13T09:06:18.890Z,96895.97
2018-09-13T09:08:47.836Z,96897.72
2018-09-13T09:11:16.959Z,96891.83
2018-09-13T09:13:45.920Z,96895.84
2018-09-13T09:16:14.832Z,96893.44
2018-09-13T09:18:43.909Z,96893.53
2018-09-13T09:21:12.806Z,96889.94
2018-09-13T09:23:41.650Z,96897.41
2018-09-13T09:26:10.540Z,96902.36
2018-09-13T09:28:39.575Z,96893.74
2018-09-13T09:31:08.599Z,96892.44
2018-09-13T09:33:37.484Z,96885.38
2018-09-13T09:36:06.396Z,96892.41
2018-09-13T09:38:35.289Z,96881.52
2018-09-13T09:41:04.335Z,96881.68
2018-09-13T09:43:33.260Z,96886.70
2018-09-13T09:46:02.152Z,96884.53
2018-09-13T09:48:31.056Z,96877.65
2018-09-13T09:50:59.972Z,96884.28
2018-09-13T09:53:29.078Z,96880.73
2018-09-13T09:55:57.963Z,96887.58
2018-09-13T09:58:26.949Z,96892.30
2018-09-13T10:01:01.067Z,96899.57
2018-09-13T10:03:30.000Z,96895.34
2018-09-13T10:05:58.882Z,96894.55
2018-09-13T10:08:27.932Z,96903.59
2018-09-13T10:10:57.053Z,96895.34
2018-09-13T10:13:25.920Z,96895.95
2018-09-13T10:16:00.153Z,96899.22
2018-09-13T10:18:34.279Z,96887.09
2018-09-13T10:21:08.310Z,96895.80
2018-09-13T10:23:42.315Z,96894.88
2018-09-13T10:26:16.311Z,96891.95
2018-09-13T10:28:50.225Z,96895.36
2018-09-13T10:31:24.181Z,96896.46
2018-09-13T10:33:58.276Z,96901.74
2018-09-13T10:36:32.227Z,96901.52
2018-09-13T10:39:06.289Z,96896.95
2018-09-13T10:41:40.316Z,96891.98
2018-09-13T10:44:14.280Z,96893.34
2018-09-13T10:46:43.222Z,96900.82
2018-09-13T10:49:17.289Z,96897.69
2018-09-13T10:51:51.308Z,96883.49
2018-09-13T10:54:22.217Z,96885.17
2018-09-13T10:56:51.076Z,96884.52
2018-09-13T10:59:20.145Z,96885.16
2018-09-13T11:01:49.021Z,96889.98
2018-09-13T11:04:17.926Z,96888.55
2018-09-13T11:06:46.936Z,96888.06
2018-09-13T11:09:15.815Z,96884.29
2018-09-13T11:11:44.918Z,96874.48
2018-09-13T11:14:18.787Z,96875.02
2018-09-13T11:16:47.653Z,96878.98
2018-09-13T11:19:16.531Z,96878.34
2018-09-13T11:21:45.586Z,96875.41
2018-09-13T11:24:14.663Z,96876.58
2018-09-13T11:26:43.594Z,96878.94
2018-09-13T11:29:12.472Z,96884.52
2018-09-13T11:31:41.358Z,96879.16
2018-09-13T11:34:10.296Z,96878.41
2018-09-13T11:36:39.196Z,96875.56
2018-09-13T11:39:10.675Z,96880.95
2018-09-13T11:41:39.713Z,96868.86
2018-09-13T11:44:08.780Z,96866.03
2018-09-13T11:46:38.055Z,96868.75
2018-09-13T11:49:07.076Z,96864.75
2018-09-13T11:51:35.948Z,96861.86
2018-09-13T11:54:04.909Z,96863.30
2018-09-13T11:56:33.797Z,96870.77
2018-09-13T11:59:02.648Z,96861.14
2018-09-13T12:01:31.551Z,96860.78
2018-09-13T12:04:00.530Z,96856.42
2018-09-13T12:06:29.448Z,96860.37
2018-09-13T12:08:58.411Z,96856.30
2018-09-13T12:11:27.296Z,96859.58
2018-09-13T12:13:56.191Z,96855.27
2018-09-13T12:16:25.124Z,96853.09
2018-09-13T12:18:54.014Z,96853.45
2018-09-13T12:21:22.865Z,96844.67
2018-09-13T12:23:51.737Z,96845.02
2018-09-13T12:26:20.666Z,96837.05
2018-09-13T12:28:49.708Z,96838.13
2018-09-13T12:31:18.598Z,96831.62
2018-09-13T12:33:47.641Z,96829.87
2018-09-13T12:36:16.471Z,96830.23
2018-09-13T12:38:45.376Z,96831.46
2018-09-13T12:41:14.524Z,96831.39
2018-09-13T12:43:43.420Z,96826.56
2018-09-13T12:46:12.411Z,96826.08
2018-09-13T12:48:41.298Z,96826.41
2018-09-13T12:51:10.191Z,96818.78
2018-09-13T12:53:39.111Z,96820.43
2018-09-13T12:56:08.039Z,96822.27
2018-09-13T12:58:36.984Z,96817.68
2018-09-13T13:01:05.867Z,96817.80
2018-09-13T13:03:34.764Z,96817.77
2018-09-13T13:06:03.851Z,96819.76
2018-09-13T13:08:32.775Z,96819.45
2018-09-13T13:11:01.673Z,96812.33
2018-09-13T13:13:30.757Z,96815.30
2018-09-13T13:15:59.640Z,96809.96
2018-09-13T13:18:28.527Z,96808.23
2018-09-13T13:20:57.407Z,96809.42
2018-09-13T13:23:26.263Z,96809.48
2018-09-13T13:25:55.260Z,96820.19
2018-09-13T13:28:24.201Z,96813.41
2018-09-13T13:30:53.072Z,96812.63
2018-09-13T13:33:22.031Z,96812.00
2018-09-13T13:35:50.941Z,96806.55
2018-09-13T13:38:19.832Z,96806.75
2018-09-13T13:40:48.817Z,96808.20
2018-09-13T13:43:17.672Z,96810.89
2018-09-13T13:45:46.597Z,96808.96
2018-09-13T13:48:15.591Z,96813.89
2018-09-13T13:50:44.514Z,96802.98
2018-09-13T13:53:13.600Z,96794.17
2018-09-13T13:55:42.479Z,96795.73
2018-09-13T13:58:11.365Z,96794.61
2018-09-13T14:00:40.428Z,96801.77
2018-09-13T14:03:09.490Z,96794.30
2018-09-13T14:05:38.432Z,96792.32
2018-09-13T14:08:07.352Z,96787.69
2018-09-13T14:10:36.269Z,96780.83
2018-09-13T14:13:05.181Z,96780.92
2018-09-13T14:15:34.067Z,96773.98
2018-09-13T14:18:03.107Z,96768.61
2018-09-13T14:20:32.051Z,96769.07
2018-09-13T14:23:00.911Z,96764.84
2018-09-13T14:25:29.859Z,96769.81
2018-09-13T14:27:58.837Z,96772.09
2018-09-13T14:30:27.740Z,96766.12
2018-09-13T14:32:56.741Z,96766.80
2018-09-13T14:35:25.647Z,96767.16
2018-09-13T14:37:54.504Z,96766.00
2018-09-13T14:40:23.365Z,96763.99
2018-09-13T14:42:52.251Z,96763.07
2018-09-13T14:45:21.192Z,96761.36
2018-09-13T14:47:50.267Z,96760.80
2018-09-13T14:50:19.143Z,96759.11
2018-09-13T14:52:48.124Z,96767.28
2018-09-13T14:55:17.099Z,96766.75
2018-09-13T14:57:45.963Z,96766.66
2018-09-13T15:00:14.849Z,96766.80
2018-09-13T15:02:44.083Z,96762.95
2018-09-13T15:05:13.075Z,96762.12
2018-09-13T15:07:41.974Z,96761.91
2018-09-13T15:10:10.871Z,96765.08
2018-09-13T15:12:40.205Z,96761.80
2018-09-13T15:15:09.251Z,96767.19
2018-09-13T15:17:38.128Z,96758.16
2018-09-13T15:20:07.343Z,96761.42
2018-09-13T15:22:36.238Z,96764.27
2018-09-13T15:25:05.188Z,96767.74
2018-09-13T15:27:34.283Z,96772.66
2018-09-13T15:30:03.148Z,96773.83
2018-09-13T15:32:32.127Z,96768.80
2018-09-13T15:35:01.047Z,96768.16
2018-09-13T15:37:29.929Z,96767.00
2018-09-13T15:40:01.194Z,96768.67
2018-09-13T15:42:30.076Z,96774.56
2018-09-13T15:44:59.341Z,96769.84
2018-09-13T15:47:28.228Z,96770.72
2018-09-13T15:49:57.256Z,96775.03
2018-09-13T15:52:26.599Z,96774.46
2018-09-13T15:54:56.286Z,96781.73
2018-09-13T15:57:25.384Z,96783.63
2018-09-13T15:59:54.268Z,96788.89
2018-09-13T16:02:23.732Z,96790.79
2018-09-13T16:04:52.780Z,96790.48
2018-09-13T16:07:21.712Z,96796.73
2018-09-13T16:09:51.428Z,96789.29
2018-09-13T16:12:20.366Z,96790.67
2018-09-13T16:14:51.309Z,96795.64
2018-09-13T16:17:20.555Z,96791.90
2018-09-13T16:19:49.808Z,96793.05
2018-09-13T16:22:19.211Z,96797.34
2018-09-13T16:24:48.392Z,96801.99
2018-09-13T16:27:18.652Z,96806.66
2018-09-13T16:29:47.604Z,96816.64
2018-09-13T16:32:30.939Z,96809.02
2018-09-13T16:35:00.311Z,96815.83
2018-09-13T16:37:34.409Z,96817.48
2018-09-13T16:40:10.623Z,96818.83
2018-09-13T16:42:53.216Z,96825.61
2018-09-13T16:45:27.255Z,96838.92
2018-09-13T16:48:00.631Z,96843.64
2018-09-13T16:50:29.776Z,96848.08
2018-09-13T16:52:58.832Z,96843.89
2018-09-13T16:55:28.691Z,96846.80
2018-09-13T16:57:58.048Z,96852.92
2018-09-13T17:00:27.496Z,96853.33
2018-09-13T17:02:56.701Z,96851.98
2018-09-13T17:05:25.640Z,96859.19
2018-09-13T17:07:55.904Z,96867.63
2018-09-13T17:10:25.429Z,96872.84
2018-09-13T17:12:55.920Z,96870.76
2018-09-13T17:15:25.262Z,96872.52
2018-09-13T17:17:54.278Z,96870.28
2018-09-13T17:20:23.274Z,96863.84
2018-09-13T17:22:52.851Z,96863.02
2018-09-13T17:25:22.113Z,96870.34
2018-09-13T17:27:53.138Z,96872.97
2018-09-13T17:30:26.780Z,96879.48
2018-09-13T17:33:11.215Z,96876.11
2018-09-13T17:35:57.287Z,96881.32
2018-09-13T17:38:26.924Z,96870.82
2018-09-13T17:40:55.809Z,96868.56
2018-09-13T17:43:24.708Z,96870.65
2018-09-13T17:45:53.941Z,96875.55
2018-09-13T17:48:22.844Z,96881.23
2018-09-13T17:50:51.927Z,96878.94
2018-09-13T17:53:20.899Z,96882.23
2018-09-13T17:55:50.089Z,96882.98
2018-09-13T17:58:19.234Z,96880.61
2018-09-13T18:00:48.173Z,96879.95
2018-09-13T18:03:17.487Z,96877.47
2018-09-13T18:05:46.865Z,96874.02
2018-09-13T18:08:16.112Z,96882.40
2018-09-13T18:10:45.005Z,96887.52
2018-09-13T18:13:14.035Z,96888.48
2018-09-13T18:15:43.225Z,96899.36
2018-09-13T18:18:12.151Z,96907.74
2018-09-13T18:20:41.073Z,96907.56
2018-09-13T18:23:09.937Z,96901.92
2018-09-13T18:25:38.840Z,96893.91
2018-09-13T18:28:07.788Z,96893.36
2018-09-13T18:30:37.142Z,96892.78
2018-09-13T18:33:06.109Z,96896.77
2018-09-13T18:35:35.029Z,96894.69
2018-09-13T18:38:03.923Z,96891.69
2018-09-13T18:40:32.879Z,96895.85
2018-09-13T18:43:01.832Z,96900.39
2018-09-13T18:45:31.110Z,96897.14
2018-09-13T18:48:00.240Z,96900.68
2018-09-13T18:50:29.340Z,96900.19
2018-09-13T18:52:58.570Z,96900.86
2018-09-13T18:55:27.676Z,96896.23
2018-09-13T18:57:56.762Z,96908.91
2018-09-13T19:00:27.777Z,96910.08
2018-09-13T19:02:56.777Z,96902.12
2018-09-13T19:05:25.760Z,96906.55
2018-09-13T19:07:55.199Z,96904.20
2018-09-13T19:10:24.111Z,96909.61
2018-09-13T19:12:53.016Z,96911.92
2018-09-13T19:15:21.928Z,96913.17
2018-09-13T19:17:50.908Z,96912.30
2018-09-13T19:20:19.839Z,96916.20
2018-09-13T19:22:48.721Z,96913.28
2018-09-13T19:25:17.738Z,96920.48
2018-09-13T19:27:46.828Z,96924.92
2018-09-13T19:30:15.952Z,96935.51
2018-09-13T19:32:45.048Z,96936.57
2018-09-13T19:35:14.130Z,96942.12
2018-09-13T19:37:43.521Z,96942.35
2018-09-13T19:40:13.111Z,96946.14
2018-09-13T19:42:42.319Z,96946.53
2018-09-13T19:45:11.440Z,96946.98
2018-09-13T19:47:40.893Z,96954.92
2018-09-13T19:50:10.187Z,96953.55
2018-09-13T19:52:39.236Z,96953.31
2018-09-13T19:55:08.650Z,96955.87
2018-09-13T19:57:37.684Z,96947.83
2018-09-13T20:00:07.390Z,96955.89
2018-09-13T20:02:36.309Z,96947.38
2018-09-13T20:05:05.572Z,96950.48
2018-09-13T20:07:34.454Z,96947.95
2018-09-13T20:10:04.401Z,96943.95
2018-09-13T20:12:33.374Z,96944.19
2018-09-13T20:15:02.953Z,96944.53
2018-09-13T20:17:32.663Z,96939.19
2018-09-13T20:20:02.760Z,96944.02
2018-09-13T20:22:31.752Z,96943.56
2018-09-13T20:25:01.221Z,96947.91
2018-09-13T20:27:33.785Z,96949.45
2018-09-13T20:30:02.889Z,96951.83
2018-09-13T20:32:38.365Z,96959.00
2018-09-13T20:35:07.313Z,96958.38
2018-09-13T20:37:36.455Z,96958.77
2018-09-13T20:40:05.904Z,96954.87
2018-09-13T20:42:35.803Z,96959.91
2018-09-13T20:45:08.912Z,96961.59
2018-09-13T20:47:38.789Z,96959.08
2018-09-13T20:50:08.448Z,96964.06
2018-09-13T20:52:41.547Z,96959.83
2018-09-13T20:55:10.885Z,96961.05
2018-09-13T20:57:40.872Z,96957.78
2018-09-13T21:00:10.357Z,96965.26
2018-09-13T21:02:39.800Z,96963.61
2018-09-13T21:05:09.444Z,96963.33
2018-09-13T21:07:40.310Z,96960.14
2018-09-13T21:10:10.224Z,96964.11
2018-09-13T21:12:40.065Z,96964.41
2018-09-13T21:15:09.529Z,96966.72
2018-09-13T21:17:38.511Z,96964.51
2018-09-13T21:20:08.056Z,96965.50
2018-09-13T21:22:37.031Z,96963.25
2018-09-13T21:25:07.532Z,96964.70
2018-09-13T21:27:36.810Z,96972.23
2018-09-13T21:30:05.976Z,96965.84
2018-09-13T21:32:34.987Z,96972.58
2018-09-13T21:35:04.247Z,96969.93
2018-09-13T21:37:33.292Z,96965.38
2018-09-13T21:40:02.337Z,96963.78
2018-09-13T21:42:31.242Z,96964.84
2018-09-13T21:45:00.678Z,96957.22
2018-09-13T21:47:29.569Z,96964.02
2018-09-13T21:49:58.525Z,96954.11
2018-09-13T21:52:27.472Z,96960.84
2018-09-13T21:54:56.558Z,96963.27
2018-09-13T21:57:25.652Z,96963.59
2018-09-13T21:59:54.965Z,96959.94
2018-09-13T22:02:24.060Z,96961.17
2018-09-13T22:04:53.256Z,96964.12
2018-09-13T22:07:22.141Z,96960.17
2018-09-13T22:09:51.052Z,96960.98
2018-09-13T22:12:20.626Z,96964.12
2018-09-13T22:14:50.132Z,96961.60
2018-09-13T22:17:19.136Z,96959.16
2018-09-13T22:19:48.460Z,96962.19
2018-09-13T22:22:17.726Z,96963.10
2018-09-13T22:24:47.121Z,96964.12
2018-09-13T22:27:16.676Z,96960.38
2018-09-13T22:29:45.900Z,96959.47
2018-09-13T22:32:15.069Z,96962.59
2018-09-13T22:34:44.214Z,96968.33
2018-09-13T22:37:13.429Z,96972.39
2018-09-13T22:39:42.870Z,96972.31
2018-09-13T22:42:37.919Z,96976.80
2018-09-13T22:45:07.491Z,96976.75
2018-09-13T22:47:36.723Z,96981.03
2018-09-13T22:50:06.274Z,96975.16
2018-09-13T22:52:35.432Z,96976.02
2018-09-13T22:55:04.787Z,96980.08
2018-09-13T22:57:34.385Z,96974.88
2018-09-13T23:00:04.636Z,96975.17
2018-09-13T23:02:41.009Z,96968.92
2018-09-13T23:05:10.385Z,96974.04
2018-09-13T23:07:39.924Z,96972.42
2018-09-13T23:10:08.819Z,96979.16
2018-09-13T23:12:37.764Z,96976.52
2018-09-13T23:15:06.991Z,96978.10
2018-09-13T23:17:35.974Z,96974.39
2018-09-13T23:20:05.223Z,96984.70
2018-09-13T23:22:34.961Z,96981.02
2018-09-13T23:25:04.500Z,96982.70
2018-09-13T23:27:33.787Z,96973.61
2018-09-13T23:30:02.839Z,96974.79
2018-09-13T23:32:31.719Z,96981.89
2018-09-13T23:35:01.021Z,96984.72
2018-09-13T23:37:30.140Z,96973.77
2018-09-13T23:39:59.337Z,96977.94
2018-09-13T23:42:28.564Z,96972.03
2018-09-13T23:44:57.448Z,96975.81
2018-09-13T23:47:26.629Z,96973.88
2018-09-13T23:49:55.935Z,96981.47
2018-09-13T23:52:25.200Z,96986.19
2018-09-13T23:54:54.107Z,96982.71
2018-09-13T23:57:22.976Z,96980.36
2018-09-13T23:59:52.393Z,96983.27
